Park City, UT

8:49 PM MDT on May 25, 2015 (GMT -0600)
Provo Municipal | | Change Station
CLOSE
Current Station
Airport
Location: Provo,
Elevation: 4495 ft
Nearby Weather Stations

Elev 4495 ft 40.22 °N, 111.72 °W | Updated 59 minutes ago

Partly Cloudy
Partly Cloudy
63 °F
Feels Like 63 °F
N
0
Wind Variable Wind from North

Today
High -- | Low -- °F
--% Chance of Precip.
Yesterday
High -- | Low -- °F
Precip. -- in
6:01 AM 8:45 PM
First Quarter, 54% visible
Pressure 29.96 in
Visibility 15.0 miles
Clouds Few 7000 ft
Scattered Clouds 14000 ft
Dew Point 43 °F
Humidity 48%
Rainfall 0.13 in
Snow Depth Not available.
UV 0 out of 12
Pollen 6.10 out of 12
Air Quality Not available.
Flu Activity Sporadic
METAR KPVU 260150Z 00000KT 15SM FEW070 SCT140 17/06 A2996

More Conditions Fewer Conditions

Pressure 29.96 in
Visibility 15.0 miles
Clouds Few 7000 ft
Scattered Clouds 14000 ft
Dew Point 43 °F
Humidity 48%
Rainfall 0.13 in
Snow Depth Not available.
UV 0 out of 12
Pollen 6.10 out of 12
Air Quality Not available.
Flu Activity Sporadic
METAR KPVU 260150Z 00000KT 15SM FEW070 SCT140 17/06 A2996

More Conditions Fewer Conditions

10-Day Weather Forecast

Almanac

Astronomy

May. 25, 2015 Rise Set
Actual Time
Civil Twilight
Nautical Twilight
Astronomical Twilight
Moon
Length of Visible Light
Length of Day
Tomorrow will be .
, % of the Moon is Illuminated

Today's Extremes

State Highs State Lows

Community

WunderPhotos

Upload Photos

1,824,238 photos uploaded!

WunderBlogs® & News

Nearby

Air Quality

  Air Quality AQ Index Pollutant
Not available.

Snow Depth

Station Depth Elevation

Earthquake Activity

City Distance Mag. Time & Date
Minimum magnitude displayed is 2.5.

Coastal Water Temperatures

Place Temperature

Stations

Nearby Weather Stations

Station Location Temp. Windchill Dew Point Humidity Wind Precip. Elev Updated Type